sensor_id;sensor_type;location;lat;lon;timestamp;P1;durP1;ratioP1;P2;durP2;ratioP2
20709;SDS011;10516;51.518;9.864;2024-03-06T00:01:31;76.47;;;46.15;;
20709;SDS011;10516;51.518;9.864;2024-03-06T00:03:57;83.78;;;48.08;;
20709;SDS011;10516;51.518;9.864;2024-03-06T00:06:22;89.05;;;47.30;;
20709;SDS011;10516;51.518;9.864;2024-03-06T00:08:49;87.63;;;50.80;;
20709;SDS011;10516;51.518;9.864;2024-03-06T00:11:15;81.05;;;48.38;;
20709;SDS011;10516;51.518;9.864;2024-03-06T00:13:40;86.57;;;48.17;;
20709;SDS011;10516;51.518;9.864;2024-03-06T00:16:06;79.95;;;46.60;;
20709;SDS011;10516;51.518;9.864;2024-03-06T00:18:31;83.00;;;46.75;;
20709;SDS011;10516;51.518;9.864;2024-03-06T00:20:56;95.20;;;48.85;;
20709;SDS011;10516;51.518;9.864;2024-03-06T00:23:22;82.63;;;47.55;;
20709;SDS011;10516;51.518;9.864;2024-03-06T00:25:47;84.40;;;47.90;;
20709;SDS011;10516;51.518;9.864;2024-03-06T00:28:12;84.68;;;48.35;;
20709;SDS011;10516;51.518;9.864;2024-03-06T00:30:38;84.78;;;44.50;;
20709;SDS011;10516;51.518;9.864;2024-03-06T00:33:03;90.32;;;47.17;;
20709;SDS011;10516;51.518;9.864;2024-03-06T00:35:28;86.10;;;47.35;;
20709;SDS011;10516;51.518;9.864;2024-03-06T00:37:54;82.60;;;45.38;;
20709;SDS011;10516;51.518;9.864;2024-03-06T00:40:19;85.28;;;46.80;;
20709;SDS011;10516;51.518;9.864;2024-03-06T00:42:45;80.00;;;46.28;;
20709;SDS011;10516;51.518;9.864;2024-03-06T00:45:10;84.95;;;46.58;;
20709;SDS011;10516;51.518;9.864;2024-03-06T00:47:36;79.85;;;46.22;;
20709;SDS011;10516;51.518;9.864;2024-03-06T00:50:02;96.93;;;53.05;;
20709;SDS011;10516;51.518;9.864;2024-03-06T00:52:27;98.75;;;50.35;;
20709;SDS011;10516;51.518;9.864;2024-03-06T00:54:53;85.13;;;46.70;;
20709;SDS011;10516;51.518;9.864;2024-03-06T00:57:18;80.55;;;45.53;;
20709;SDS011;10516;51.518;9.864;2024-03-06T00:59:44;86.28;;;49.42;;
20709;SDS011;10516;51.518;9.864;2024-03-06T01:02:09;87.22;;;49.50;;
20709;SDS011;10516;51.518;9.864;2024-03-06T01:04:34;85.80;;;46.05;;
20709;SDS011;10516;51.518;9.864;2024-03-06T01:07:00;75.35;;;42.67;;
20709;SDS011;10516;51.518;9.864;2024-03-06T01:09:25;82.55;;;47.50;;
20709;SDS011;10516;51.518;9.864;2024-03-06T01:11:52;77.90;;;44.53;;
20709;SDS011;10516;51.518;9.864;2024-03-06T01:14:18;80.47;;;45.20;;
20709;SDS011;10516;51.518;9.864;2024-03-06T01:16:43;89.43;;;46.40;;
20709;SDS011;10516;51.518;9.864;2024-03-06T01:19:08;87.53;;;46.83;;
20709;SDS011;10516;51.518;9.864;2024-03-06T01:21:34;84.90;;;44.83;;
20709;SDS011;10516;51.518;9.864;2024-03-06T01:24:00;86.40;;;44.22;;
20709;SDS011;10516;51.518;9.864;2024-03-06T01:26:26;91.15;;;49.70;;
20709;SDS011;10516;51.518;9.864;2024-03-06T01:28:51;84.13;;;44.88;;
20709;SDS011;10516;51.518;9.864;2024-03-06T01:31:17;80.93;;;46.38;;
20709;SDS011;10516;51.518;9.864;2024-03-06T01:33:42;85.25;;;45.83;;
20709;SDS011;10516;51.518;9.864;2024-03-06T01:36:07;84.63;;;47.17;;
20709;SDS011;10516;51.518;9.864;2024-03-06T01:38:33;81.22;;;44.70;;
20709;SDS011;10516;51.518;9.864;2024-03-06T01:40:58;83.70;;;44.63;;
20709;SDS011;10516;51.518;9.864;2024-03-06T01:43:24;92.93;;;48.03;;
20709;SDS011;10516;51.518;9.864;2024-03-06T01:45:51;84.78;;;47.20;;
20709;SDS011;10516;51.518;9.864;2024-03-06T01:48:23;83.43;;;45.67;;
20709;SDS011;10516;51.518;9.864;2024-03-06T01:50:53;85.82;;;47.95;;
20709;SDS011;10516;51.518;9.864;2024-03-06T01:53:20;85.18;;;47.13;;
20709;SDS011;10516;51.518;9.864;2024-03-06T01:55:46;82.03;;;45.67;;
20709;SDS011;10516;51.518;9.864;2024-03-06T01:58:13;80.68;;;43.85;;
20709;SDS011;10516;51.518;9.864;2024-03-06T02:00:38;77.32;;;45.03;;
20709;SDS011;10516;51.518;9.864;2024-03-06T02:03:05;81.22;;;45.30;;
20709;SDS011;10516;51.518;9.864;2024-03-06T02:05:30;86.93;;;45.30;;
20709;SDS011;10516;51.518;9.864;2024-03-06T02:07:57;90.35;;;46.58;;
20709;SDS011;10516;51.518;9.864;2024-03-06T02:10:27;87.57;;;46.03;;
20709;SDS011;10516;51.518;9.864;2024-03-06T02:12:53;83.03;;;45.42;;
20709;SDS011;10516;51.518;9.864;2024-03-06T02:15:19;85.13;;;46.78;;
20709;SDS011;10516;51.518;9.864;2024-03-06T02:17:45;81.93;;;47.33;;
20709;SDS011;10516;51.518;9.864;2024-03-06T02:20:11;81.40;;;45.53;;
20709;SDS011;10516;51.518;9.864;2024-03-06T02:22:39;83.78;;;44.97;;
20709;SDS011;10516;51.518;9.864;2024-03-06T02:25:05;88.85;;;48.17;;
20709;SDS011;10516;51.518;9.864;2024-03-06T02:27:32;86.75;;;46.53;;
20709;SDS011;10516;51.518;9.864;2024-03-06T02:29:57;86.80;;;46.72;;
20709;SDS011;10516;51.518;9.864;2024-03-06T02:32:23;81.50;;;45.63;;
20709;SDS011;10516;51.518;9.864;2024-03-06T02:34:49;86.55;;;46.40;;
20709;SDS011;10516;51.518;9.864;2024-03-06T02:37:15;83.70;;;46.58;;
20709;SDS011;10516;51.518;9.864;2024-03-06T02:39:40;83.80;;;45.80;;
20709;SDS011;10516;51.518;9.864;2024-03-06T02:42:05;85.18;;;46.15;;
20709;SDS011;10516;51.518;9.864;2024-03-06T02:44:32;77.20;;;44.72;;
20709;SDS011;10516;51.518;9.864;2024-03-06T02:46:58;85.05;;;44.15;;
20709;SDS011;10516;51.518;9.864;2024-03-06T02:49:24;86.80;;;45.95;;
20709;SDS011;10516;51.518;9.864;2024-03-06T02:51:49;85.70;;;46.28;;
20709;SDS011;10516;51.518;9.864;2024-03-06T02:54:15;87.18;;;46.70;;
20709;SDS011;10516;51.518;9.864;2024-03-06T02:56:40;92.22;;;47.97;;
20709;SDS011;10516;51.518;9.864;2024-03-06T02:59:06;86.70;;;46.22;;
20709;SDS011;10516;51.518;9.864;2024-03-06T03:01:31;86.72;;;47.03;;
20709;SDS011;10516;51.518;9.864;2024-03-06T03:03:57;79.65;;;46.95;;
20709;SDS011;10516;51.518;9.864;2024-03-06T03:06:22;86.20;;;46.78;;
20709;SDS011;10516;51.518;9.864;2024-03-06T03:08:49;83.43;;;43.97;;
20709;SDS011;10516;51.518;9.864;2024-03-06T03:11:14;85.60;;;47.20;;
20709;SDS011;10516;51.518;9.864;2024-03-06T03:13:40;85.80;;;46.85;;
20709;SDS011;10516;51.518;9.864;2024-03-06T03:16:06;89.50;;;46.30;;
20709;SDS011;10516;51.518;9.864;2024-03-06T03:18:32;89.68;;;48.63;;
20709;SDS011;10516;51.518;9.864;2024-03-06T03:20:57;85.22;;;48.13;;
20709;SDS011;10516;51.518;9.864;2024-03-06T03:23:23;90.85;;;44.47;;
20709;SDS011;10516;51.518;9.864;2024-03-06T03:25:48;86.47;;;48.08;;
20709;SDS011;10516;51.518;9.864;2024-03-06T03:28:14;86.05;;;48.05;;
20709;SDS011;10516;51.518;9.864;2024-03-06T03:30:42;86.55;;;46.97;;
20709;SDS011;10516;51.518;9.864;2024-03-06T03:33:09;85.60;;;45.63;;
20709;SDS011;10516;51.518;9.864;2024-03-06T03:35:34;87.93;;;46.75;;
20709;SDS011;10516;51.518;9.864;2024-03-06T03:38:00;84.30;;;45.60;;
20709;SDS011;10516;51.518;9.864;2024-03-06T03:40:25;93.65;;;48.53;;
20709;SDS011;10516;51.518;9.864;2024-03-06T03:42:50;85.72;;;45.58;;
20709;SDS011;10516;51.518;9.864;2024-03-06T03:45:16;90.47;;;49.15;;
20709;SDS011;10516;51.518;9.864;2024-03-06T03:47:41;87.80;;;46.22;;
20709;SDS011;10516;51.518;9.864;2024-03-06T03:50:08;85.85;;;45.90;;
20709;SDS011;10516;51.518;9.864;2024-03-06T03:52:34;91.13;;;48.03;;
20709;SDS011;10516;51.518;9.864;2024-03-06T03:54:59;91.22;;;48.22;;
20709;SDS011;10516;51.518;9.864;2024-03-06T03:57:24;83.95;;;46.22;;
20709;SDS011;10516;51.518;9.864;2024-03-06T03:59:50;86.05;;;47.53;;
20709;SDS011;10516;51.518;9.864;2024-03-06T04:02:16;85.93;;;48.08;;
20709;SDS011;10516;51.518;9.864;2024-03-06T04:04:41;86.50;;;47.13;;
20709;SDS011;10516;51.518;9.864;2024-03-06T04:07:07;81.72;;;47.13;;
20709;SDS011;10516;51.518;9.864;2024-03-06T04:09:32;89.53;;;48.20;;
20709;SDS011;10516;51.518;9.864;2024-03-06T04:12:01;100.18;;;50.65;;
20709;SDS011;10516;51.518;9.864;2024-03-06T04:14:27;91.85;;;49.72;;
20709;SDS011;10516;51.518;9.864;2024-03-06T04:16:52;87.78;;;47.80;;
20709;SDS011;10516;51.518;9.864;2024-03-06T04:19:17;97.97;;;50.47;;
20709;SDS011;10516;51.518;9.864;2024-03-06T04:21:43;93.30;;;47.42;;
20709;SDS011;10516;51.518;9.864;2024-03-06T04:24:09;93.68;;;51.45;;
20709;SDS011;10516;51.518;9.864;2024-03-06T04:26:35;90.72;;;47.97;;
20709;SDS011;10516;51.518;9.864;2024-03-06T04:29:00;80.03;;;43.70;;
20709;SDS011;10516;51.518;9.864;2024-03-06T04:31:26;82.97;;;46.92;;
20709;SDS011;10516;51.518;9.864;2024-03-06T04:33:51;80.13;;;45.70;;
20709;SDS011;10516;51.518;9.864;2024-03-06T04:36:16;87.57;;;47.35;;
20709;SDS011;10516;51.518;9.864;2024-03-06T04:38:42;85.50;;;45.05;;
20709;SDS011;10516;51.518;9.864;2024-03-06T04:41:08;79.13;;;44.15;;
20709;SDS011;10516;51.518;9.864;2024-03-06T04:43:33;90.88;;;46.92;;
20709;SDS011;10516;51.518;9.864;2024-03-06T04:45:58;87.85;;;46.85;;
20709;SDS011;10516;51.518;9.864;2024-03-06T04:48:24;93.10;;;47.10;;
20709;SDS011;10516;51.518;9.864;2024-03-06T04:50:49;83.10;;;47.53;;
20709;SDS011;10516;51.518;9.864;2024-03-06T04:53:15;91.28;;;50.92;;
20709;SDS011;10516;51.518;9.864;2024-03-06T04:55:40;86.85;;;47.08;;
20709;SDS011;10516;51.518;9.864;2024-03-06T04:58:06;95.95;;;49.40;;
20709;SDS011;10516;51.518;9.864;2024-03-06T05:00:32;88.43;;;48.88;;
20709;SDS011;10516;51.518;9.864;2024-03-06T05:02:57;90.82;;;49.08;;
20709;SDS011;10516;51.518;9.864;2024-03-06T05:05:22;85.53;;;46.25;;
20709;SDS011;10516;51.518;9.864;2024-03-06T05:07:48;85.90;;;45.60;;
20709;SDS011;10516;51.518;9.864;2024-03-06T05:10:13;82.38;;;47.03;;
20709;SDS011;10516;51.518;9.864;2024-03-06T05:12:40;92.32;;;45.92;;
20709;SDS011;10516;51.518;9.864;2024-03-06T05:15:06;92.32;;;47.78;;
20709;SDS011;10516;51.518;9.864;2024-03-06T05:17:33;90.05;;;47.67;;
20709;SDS011;10516;51.518;9.864;2024-03-06T05:19:59;87.72;;;45.67;;
20709;SDS011;10516;51.518;9.864;2024-03-06T05:22:24;86.22;;;48.28;;
20709;SDS011;10516;51.518;9.864;2024-03-06T05:24:51;88.20;;;45.30;;
20709;SDS011;10516;51.518;9.864;2024-03-06T05:27:17;89.00;;;47.60;;
20709;SDS011;10516;51.518;9.864;2024-03-06T05:29:43;88.13;;;46.33;;
20709;SDS011;10516;51.518;9.864;2024-03-06T05:32:09;90.65;;;47.95;;
20709;SDS011;10516;51.518;9.864;2024-03-06T05:34:35;85.00;;;46.13;;
20709;SDS011;10516;51.518;9.864;2024-03-06T05:37:00;78.25;;;44.35;;
20709;SDS011;10516;51.518;9.864;2024-03-06T05:39:28;78.40;;;44.00;;
20709;SDS011;10516;51.518;9.864;2024-03-06T05:41:54;83.70;;;45.63;;
20709;SDS011;10516;51.518;9.864;2024-03-06T05:44:20;82.57;;;44.63;;
20709;SDS011;10516;51.518;9.864;2024-03-06T05:46:46;82.88;;;42.28;;
20709;SDS011;10516;51.518;9.864;2024-03-06T05:49:12;82.93;;;44.00;;
20709;SDS011;10516;51.518;9.864;2024-03-06T05:51:38;83.32;;;42.25;;
20709;SDS011;10516;51.518;9.864;2024-03-06T05:54:04;78.00;;;42.40;;
20709;SDS011;10516;51.518;9.864;2024-03-06T05:56:31;85.03;;;42.47;;
20709;SDS011;10516;51.518;9.864;2024-03-06T05:58:56;75.53;;;39.65;;
20709;SDS011;10516;51.518;9.864;2024-03-06T06:01:22;74.93;;;41.17;;
20709;SDS011;10516;51.518;9.864;2024-03-06T06:03:48;70.03;;;40.97;;
20709;SDS011;10516;51.518;9.864;2024-03-06T06:06:17;73.22;;;40.72;;
20709;SDS011;10516;51.518;9.864;2024-03-06T06:08:45;72.30;;;37.95;;
20709;SDS011;10516;51.518;9.864;2024-03-06T06:11:32;71.07;;;39.30;;
20709;SDS011;10516;51.518;9.864;2024-03-06T06:14:00;72.28;;;40.83;;
20709;SDS011;10516;51.518;9.864;2024-03-06T06:16:34;64.78;;;37.85;;
20709;SDS011;10516;51.518;9.864;2024-03-06T06:19:09;68.28;;;39.35;;
20709;SDS011;10516;51.518;9.864;2024-03-06T06:21:35;66.28;;;37.83;;
20709;SDS011;10516;51.518;9.864;2024-03-06T06:24:10;71.55;;;39.47;;
20709;SDS011;10516;51.518;9.864;2024-03-06T06:26:56;71.70;;;40.28;;
20709;SDS011;10516;51.518;9.864;2024-03-06T06:29:21;80.20;;;40.78;;
20709;SDS011;10516;51.518;9.864;2024-03-06T06:31:46;69.65;;;39.65;;
20709;SDS011;10516;51.518;9.864;2024-03-06T06:34:12;77.10;;;40.55;;
20709;SDS011;10516;51.518;9.864;2024-03-06T06:36:37;71.38;;;38.35;;
20709;SDS011;10516;51.518;9.864;2024-03-06T06:39:02;72.38;;;40.42;;
20709;SDS011;10516;51.518;9.864;2024-03-06T06:41:31;69.63;;;38.47;;
20709;SDS011;10516;51.518;9.864;2024-03-06T06:43:56;74.43;;;39.97;;
20709;SDS011;10516;51.518;9.864;2024-03-06T06:46:21;71.32;;;38.67;;
20709;SDS011;10516;51.518;9.864;2024-03-06T06:48:47;68.32;;;38.20;;
20709;SDS011;10516;51.518;9.864;2024-03-06T06:51:14;75.30;;;37.10;;
20709;SDS011;10516;51.518;9.864;2024-03-06T06:53:39;68.78;;;38.95;;
20709;SDS011;10516;51.518;9.864;2024-03-06T06:56:06;64.63;;;36.03;;
20709;SDS011;10516;51.518;9.864;2024-03-06T06:58:33;68.80;;;38.30;;
20709;SDS011;10516;51.518;9.864;2024-03-06T07:00:58;70.63;;;39.35;;
20709;SDS011;10516;51.518;9.864;2024-03-06T07:03:23;79.45;;;38.92;;
20709;SDS011;10516;51.518;9.864;2024-03-06T07:05:54;69.15;;;36.75;;
20709;SDS011;10516;51.518;9.864;2024-03-06T07:08:20;75.85;;;37.78;;
20709;SDS011;10516;51.518;9.864;2024-03-06T07:10:46;68.38;;;36.20;;
20709;SDS011;10516;51.518;9.864;2024-03-06T07:13:11;61.25;;;35.00;;
20709;SDS011;10516;51.518;9.864;2024-03-06T07:15:36;71.43;;;36.05;;
20709;SDS011;10516;51.518;9.864;2024-03-06T07:18:02;72.78;;;39.67;;
20709;SDS011;10516;51.518;9.864;2024-03-06T07:20:28;67.18;;;34.53;;
20709;SDS011;10516;51.518;9.864;2024-03-06T07:22:53;65.28;;;37.85;;
20709;SDS011;10516;51.518;9.864;2024-03-06T07:25:19;60.80;;;34.35;;
20709;SDS011;10516;51.518;9.864;2024-03-06T07:27:45;60.22;;;32.33;;
20709;SDS011;10516;51.518;9.864;2024-03-06T07:30:11;65.07;;;35.20;;
20709;SDS011;10516;51.518;9.864;2024-03-06T07:32:36;63.58;;;35.63;;
20709;SDS011;10516;51.518;9.864;2024-03-06T07:35:02;62.42;;;34.83;;
20709;SDS011;10516;51.518;9.864;2024-03-06T07:37:27;62.95;;;33.80;;
20709;SDS011;10516;51.518;9.864;2024-03-06T07:39:52;65.20;;;34.70;;
20709;SDS011;10516;51.518;9.864;2024-03-06T07:42:18;59.85;;;34.13;;
20709;SDS011;10516;51.518;9.864;2024-03-06T07:44:43;52.88;;;32.15;;
20709;SDS011;10516;51.518;9.864;2024-03-06T07:47:09;55.72;;;34.65;;
20709;SDS011;10516;51.518;9.864;2024-03-06T07:49:34;69.63;;;38.15;;
20709;SDS011;10516;51.518;9.864;2024-03-06T07:52:00;60.08;;;35.13;;
20709;SDS011;10516;51.518;9.864;2024-03-06T07:54:25;62.03;;;33.60;;
20709;SDS011;10516;51.518;9.864;2024-03-06T07:56:50;56.15;;;33.17;;
20709;SDS011;10516;51.518;9.864;2024-03-06T07:59:16;66.72;;;35.83;;
20709;SDS011;10516;51.518;9.864;2024-03-06T08:01:43;62.92;;;34.85;;
20709;SDS011;10516;51.518;9.864;2024-03-06T08:04:08;62.78;;;36.08;;
20709;SDS011;10516;51.518;9.864;2024-03-06T08:06:34;54.47;;;33.25;;
20709;SDS011;10516;51.518;9.864;2024-03-06T08:09:02;61.50;;;34.08;;
20709;SDS011;10516;51.518;9.864;2024-03-06T08:11:28;62.00;;;35.47;;
20709;SDS011;10516;51.518;9.864;2024-03-06T08:13:57;58.88;;;33.22;;
20709;SDS011;10516;51.518;9.864;2024-03-06T08:16:23;60.40;;;34.08;;
20709;SDS011;10516;51.518;9.864;2024-03-06T08:18:48;60.13;;;33.95;;
20709;SDS011;10516;51.518;9.864;2024-03-06T08:21:14;53.90;;;34.30;;
20709;SDS011;10516;51.518;9.864;2024-03-06T08:23:39;58.33;;;33.25;;
20709;SDS011;10516;51.518;9.864;2024-03-06T08:26:05;57.55;;;33.38;;
20709;SDS011;10516;51.518;9.864;2024-03-06T08:28:30;61.00;;;34.60;;
20709;SDS011;10516;51.518;9.864;2024-03-06T08:30:56;55.92;;;33.90;;
20709;SDS011;10516;51.518;9.864;2024-03-06T08:33:21;51.80;;;32.15;;
20709;SDS011;10516;51.518;9.864;2024-03-06T08:35:47;51.50;;;31.88;;
20709;SDS011;10516;51.518;9.864;2024-03-06T08:38:13;54.50;;;33.28;;
20709;SDS011;10516;51.518;9.864;2024-03-06T08:40:38;54.22;;;33.33;;
20709;SDS011;10516;51.518;9.864;2024-03-06T08:43:04;52.33;;;33.50;;
20709;SDS011;10516;51.518;9.864;2024-03-06T08:45:29;60.03;;;33.97;;
20709;SDS011;10516;51.518;9.864;2024-03-06T08:47:54;58.90;;;33.22;;
20709;SDS011;10516;51.518;9.864;2024-03-06T08:50:20;59.30;;;34.00;;
20709;SDS011;10516;51.518;9.864;2024-03-06T08:52:45;65.63;;;35.05;;
20709;SDS011;10516;51.518;9.864;2024-03-06T08:55:11;61.83;;;35.33;;
20709;SDS011;10516;51.518;9.864;2024-03-06T08:57:37;55.15;;;34.97;;
20709;SDS011;10516;51.518;9.864;2024-03-06T09:00:04;64.63;;;35.58;;
20709;SDS011;10516;51.518;9.864;2024-03-06T09:02:33;62.25;;;36.63;;
20709;SDS011;10516;51.518;9.864;2024-03-06T09:04:59;62.05;;;34.85;;
20709;SDS011;10516;51.518;9.864;2024-03-06T09:07:24;60.17;;;35.10;;
20709;SDS011;10516;51.518;9.864;2024-03-06T09:09:50;63.47;;;35.60;;
20709;SDS011;10516;51.518;9.864;2024-03-06T09:12:18;60.30;;;34.45;;
20709;SDS011;10516;51.518;9.864;2024-03-06T09:14:44;59.95;;;34.03;;
20709;SDS011;10516;51.518;9.864;2024-03-06T09:17:10;63.80;;;34.60;;
20709;SDS011;10516;51.518;9.864;2024-03-06T09:19:38;62.33;;;32.70;;
20709;SDS011;10516;51.518;9.864;2024-03-06T09:22:03;59.95;;;34.13;;
20709;SDS011;10516;51.518;9.864;2024-03-06T09:24:29;53.40;;;32.95;;
20709;SDS011;10516;51.518;9.864;2024-03-06T09:26:54;56.75;;;32.42;;
20709;SDS011;10516;51.518;9.864;2024-03-06T09:29:19;56.70;;;33.25;;
20709;SDS011;10516;51.518;9.864;2024-03-06T09:31:46;58.13;;;32.17;;
20709;SDS011;10516;51.518;9.864;2024-03-06T09:34:12;55.30;;;34.30;;
20709;SDS011;10516;51.518;9.864;2024-03-06T09:36:39;56.40;;;30.45;;
20709;SDS011;10516;51.518;9.864;2024-03-06T09:39:05;63.88;;;33.50;;
20709;SDS011;10516;51.518;9.864;2024-03-06T09:41:33;64.15;;;33.15;;
20709;SDS011;10516;51.518;9.864;2024-03-06T09:43:59;52.88;;;32.20;;
20709;SDS011;10516;51.518;9.864;2024-03-06T09:46:25;50.13;;;31.85;;
20709;SDS011;10516;51.518;9.864;2024-03-06T09:48:51;53.45;;;30.85;;
20709;SDS011;10516;51.518;9.864;2024-03-06T09:51:18;52.70;;;31.63;;
20709;SDS011;10516;51.518;9.864;2024-03-06T09:53:45;51.40;;;30.33;;
20709;SDS011;10516;51.518;9.864;2024-03-06T09:56:14;48.10;;;29.70;;
20709;SDS011;10516;51.518;9.864;2024-03-06T09:58:40;50.78;;;31.85;;
20709;SDS011;10516;51.518;9.864;2024-03-06T10:01:06;51.05;;;31.45;;
20709;SDS011;10516;51.518;9.864;2024-03-06T10:03:33;52.08;;;30.60;;
20709;SDS011;10516;51.518;9.864;2024-03-06T10:05:59;58.90;;;32.60;;
20709;SDS011;10516;51.518;9.864;2024-03-06T10:08:25;55.17;;;31.55;;
20709;SDS011;10516;51.518;9.864;2024-03-06T10:10:51;51.83;;;28.98;;
20709;SDS011;10516;51.518;9.864;2024-03-06T10:13:17;47.90;;;30.75;;
20709;SDS011;10516;51.518;9.864;2024-03-06T10:15:42;51.17;;;32.25;;
20709;SDS011;10516;51.518;9.864;2024-03-06T10:18:22;50.72;;;29.45;;
20709;SDS011;10516;51.518;9.864;2024-03-06T10:20:52;53.10;;;29.02;;
20709;SDS011;10516;51.518;9.864;2024-03-06T10:23:18;57.80;;;32.35;;
20709;SDS011;10516;51.518;9.864;2024-03-06T10:25:43;50.75;;;31.33;;
20709;SDS011;10516;51.518;9.864;2024-03-06T10:28:11;51.38;;;30.35;;
20709;SDS011;10516;51.518;9.864;2024-03-06T10:30:38;55.60;;;31.23;;
20709;SDS011;10516;51.518;9.864;2024-03-06T10:33:08;49.72;;;29.92;;
20709;SDS011;10516;51.518;9.864;2024-03-06T10:35:37;52.50;;;31.38;;
20709;SDS011;10516;51.518;9.864;2024-03-06T10:38:05;49.20;;;30.17;;
20709;SDS011;10516;51.518;9.864;2024-03-06T10:40:31;50.63;;;30.88;;
20709;SDS011;10516;51.518;9.864;2024-03-06T10:42:58;48.42;;;28.77;;
20709;SDS011;10516;51.518;9.864;2024-03-06T10:45:27;48.70;;;30.75;;
20709;SDS011;10516;51.518;9.864;2024-03-06T10:48:04;57.45;;;30.08;;
20709;SDS011;10516;51.518;9.864;2024-03-06T10:50:32;50.67;;;30.08;;
20709;SDS011;10516;51.518;9.864;2024-03-06T10:52:57;56.65;;;28.30;;
20709;SDS011;10516;51.518;9.864;2024-03-06T10:55:24;45.03;;;29.45;;
20709;SDS011;10516;51.518;9.864;2024-03-06T10:57:53;49.60;;;29.48;;
20709;SDS011;10516;51.518;9.864;2024-03-06T11:00:21;56.28;;;29.45;;
20709;SDS011;10516;51.518;9.864;2024-03-06T11:02:48;52.80;;;30.48;;
20709;SDS011;10516;51.518;9.864;2024-03-06T11:05:15;46.97;;;30.92;;
20709;SDS011;10516;51.518;9.864;2024-03-06T11:07:41;44.20;;;28.83;;
20709;SDS011;10516;51.518;9.864;2024-03-06T11:10:07;44.08;;;27.95;;
20709;SDS011;10516;51.518;9.864;2024-03-06T11:12:36;45.90;;;29.42;;
20709;SDS011;10516;51.518;9.864;2024-03-06T11:15:09;53.63;;;29.48;;
20709;SDS011;10516;51.518;9.864;2024-03-06T11:17:38;53.88;;;30.50;;
20709;SDS011;10516;51.518;9.864;2024-03-06T11:28:09;46.42;;;29.48;;
20709;SDS011;10516;51.518;9.864;2024-03-06T11:30:44;47.67;;;29.67;;
20709;SDS011;10516;51.518;9.864;2024-03-06T11:33:36;52.63;;;31.60;;
20709;SDS011;10516;51.518;9.864;2024-03-06T11:39:03;54.05;;;31.63;;
20709;SDS011;10516;51.518;9.864;2024-03-06T11:41:31;52.03;;;31.52;;
20709;SDS011;10516;51.518;9.864;2024-03-06T11:44:12;53.45;;;32.30;;
20709;SDS011;10516;51.518;9.864;2024-03-06T11:46:43;48.00;;;31.08;;
20709;SDS011;10516;51.518;9.864;2024-03-06T11:49:22;49.97;;;30.80;;
20709;SDS011;10516;51.518;9.864;2024-03-06T11:51:52;47.95;;;30.50;;
20709;SDS011;10516;51.518;9.864;2024-03-06T11:54:19;53.95;;;31.15;;
20709;SDS011;10516;51.518;9.864;2024-03-06T11:56:55;51.97;;;30.60;;
20709;SDS011;10516;51.518;9.864;2024-03-06T11:59:22;48.28;;;29.48;;
20709;SDS011;10516;51.518;9.864;2024-03-06T12:01:49;46.92;;;28.70;;
20709;SDS011;10516;51.518;9.864;2024-03-06T12:04:15;55.53;;;31.45;;
20709;SDS011;10516;51.518;9.864;2024-03-06T12:06:40;49.03;;;29.73;;
20709;SDS011;10516;51.518;9.864;2024-03-06T12:09:06;58.72;;;33.97;;
20709;SDS011;10516;51.518;9.864;2024-03-06T12:11:36;49.78;;;33.42;;
20709;SDS011;10516;51.518;9.864;2024-03-06T12:14:02;59.33;;;36.25;;
20709;SDS011;10516;51.518;9.864;2024-03-06T12:16:28;57.67;;;34.17;;
20709;SDS011;10516;51.518;9.864;2024-03-06T12:18:57;57.40;;;33.90;;
20709;SDS011;10516;51.518;9.864;2024-03-06T12:21:27;56.67;;;33.65;;
20709;SDS011;10516;51.518;9.864;2024-03-06T12:24:03;59.33;;;36.08;;
20709;SDS011;10516;51.518;9.864;2024-03-06T12:26:35;59.90;;;35.53;;
20709;SDS011;10516;51.518;9.864;2024-03-06T12:29:08;67.47;;;36.17;;
20709;SDS011;10516;51.518;9.864;2024-03-06T12:31:35;54.65;;;35.70;;
20709;SDS011;10516;51.518;9.864;2024-03-06T12:34:02;61.15;;;36.97;;
20709;SDS011;10516;51.518;9.864;2024-03-06T12:36:28;69.00;;;39.47;;
20709;SDS011;10516;51.518;9.864;2024-03-06T12:39:01;56.90;;;34.72;;
20709;SDS011;10516;51.518;9.864;2024-03-06T12:41:28;57.80;;;34.30;;
20709;SDS011;10516;51.518;9.864;2024-03-06T12:43:55;48.58;;;30.70;;
20709;SDS011;10516;51.518;9.864;2024-03-06T12:46:21;56.55;;;34.85;;
20709;SDS011;10516;51.518;9.864;2024-03-06T12:48:47;51.97;;;31.77;;
20709;SDS011;10516;51.518;9.864;2024-03-06T12:51:12;49.72;;;31.33;;
20709;SDS011;10516;51.518;9.864;2024-03-06T12:53:37;62.20;;;36.08;;
20709;SDS011;10516;51.518;9.864;2024-03-06T12:56:03;57.15;;;35.75;;
20709;SDS011;10516;51.518;9.864;2024-03-06T12:58:29;55.55;;;37.17;;
20709;SDS011;10516;51.518;9.864;2024-03-06T13:01:00;61.17;;;37.05;;
20709;SDS011;10516;51.518;9.864;2024-03-06T13:03:26;63.88;;;37.47;;
20709;SDS011;10516;51.518;9.864;2024-03-06T13:05:52;64.07;;;39.28;;
20709;SDS011;10516;51.518;9.864;2024-03-06T13:08:17;58.40;;;33.08;;
20709;SDS011;10516;51.518;9.864;2024-03-06T13:10:42;64.75;;;39.97;;
20709;SDS011;10516;51.518;9.864;2024-03-06T13:13:08;66.88;;;39.30;;
20709;SDS011;10516;51.518;9.864;2024-03-06T13:15:33;69.10;;;39.63;;
20709;SDS011;10516;51.518;9.864;2024-03-06T13:17:59;59.60;;;37.13;;
20709;SDS011;10516;51.518;9.864;2024-03-06T13:20:34;62.38;;;37.42;;
20709;SDS011;10516;51.518;9.864;2024-03-06T13:23:00;59.72;;;36.67;;
20709;SDS011;10516;51.518;9.864;2024-03-06T13:25:26;65.88;;;38.47;;
20709;SDS011;10516;51.518;9.864;2024-03-06T13:27:52;59.50;;;36.30;;
20709;SDS011;10516;51.518;9.864;2024-03-06T13:30:19;61.78;;;35.60;;
20709;SDS011;10516;51.518;9.864;2024-03-06T13:32:44;62.53;;;37.60;;
20709;SDS011;10516;51.518;9.864;2024-03-06T13:35:13;68.00;;;36.83;;
20709;SDS011;10516;51.518;9.864;2024-03-06T13:37:41;58.00;;;36.60;;
20709;SDS011;10516;51.518;9.864;2024-03-06T13:40:10;65.80;;;37.58;;
20709;SDS011;10516;51.518;9.864;2024-03-06T13:42:38;61.83;;;36.42;;
20709;SDS011;10516;51.518;9.864;2024-03-06T13:45:07;63.63;;;39.28;;
20709;SDS011;10516;51.518;9.864;2024-03-06T13:47:43;62.92;;;37.20;;
20709;SDS011;10516;51.518;9.864;2024-03-06T13:50:10;68.40;;;38.13;;
20709;SDS011;10516;51.518;9.864;2024-03-06T13:52:37;63.65;;;36.20;;
20709;SDS011;10516;51.518;9.864;2024-03-06T13:55:03;59.47;;;35.08;;
20709;SDS011;10516;51.518;9.864;2024-03-06T13:57:30;51.05;;;33.90;;
20709;SDS011;10516;51.518;9.864;2024-03-06T14:00:00;59.42;;;34.83;;
20709;SDS011;10516;51.518;9.864;2024-03-06T14:02:26;59.97;;;34.60;;
20709;SDS011;10516;51.518;9.864;2024-03-06T14:04:51;60.42;;;35.47;;
20709;SDS011;10516;51.518;9.864;2024-03-06T14:07:17;63.15;;;34.83;;
20709;SDS011;10516;51.518;9.864;2024-03-06T14:09:43;60.10;;;36.25;;
20709;SDS011;10516;51.518;9.864;2024-03-06T14:12:08;49.95;;;30.60;;
20709;SDS011;10516;51.518;9.864;2024-03-06T14:14:33;54.22;;;31.20;;
20709;SDS011;10516;51.518;9.864;2024-03-06T14:16:59;58.08;;;32.78;;
20709;SDS011;10516;51.518;9.864;2024-03-06T14:19:24;55.90;;;33.40;;
20709;SDS011;10516;51.518;9.864;2024-03-06T14:21:50;69.85;;;33.30;;
20709;SDS011;10516;51.518;9.864;2024-03-06T14:24:15;53.78;;;32.17;;
20709;SDS011;10516;51.518;9.864;2024-03-06T14:26:40;58.50;;;33.10;;
20709;SDS011;10516;51.518;9.864;2024-03-06T14:29:06;54.22;;;33.05;;